Marstons Mills, Massachusetts
Current Conditions -  °F | °C
As of 7:55 AM on Wednesday 26 Nov 2014 (Local Time) from KFMH Reporting Station
Light Rain Light Rain  
Wind Chill: 41°   Ceiling: 7500
Heat Index: 45°   Visibility: 6mi
Dew Point: 37°   Wind: 7mph
Humidity: 76%   Direction: 30°NNE
Pressure: 30.14"   Gusts: 15mph
Location:  41.66°N, 70.41°W
Report Text: KFMH 261255Z AUTO 03006G13KT 6SM -RA FEW025 SCT055 BKN075 07/03 A3014 RMK AO2
Loading
Personal Weather Stations






























Interactive Weather Map New forecast layout! Learn more

10-Day Weather Forecast

Advertisements
Track Severe Weather on mobile